Time;durP1;ratioP1;P1;durP2;ratioP2;P2;SDS_P1;SDS_P2;PMS_P1;PMS_P2;Temp;Humidity;BMP_temperature;BMP_pressure;BME280_temperature;BME280_humidity;BME280_pressure;Samples;Min_cycle;Max_cycle;Signal;HPM_P1;HPM_P2
2023/04/26 00:01:52;;;;;;;;;;;2.00;99.90;;;;;;5096307;28;19928;-78
2023/04/26 00:04:21;;;;;;;;;;;2.00;99.90;;;;;;5092580;28;19993;-79
2023/04/26 00:06:48;;;;;;;;;;;2.00;99.90;;;;;;5090558;28;19924;-80
2023/04/26 00:09:15;;;;;;;;;;;2.00;99.90;;;;;;5094652;28;19939;-80
2023/04/26 00:11:42;;;;;;;;;;;1.90;99.90;;;;;;5095360;28;20039;-79
2023/04/26 00:14:09;;;;;;;;;;;1.80;99.90;;;;;;5093913;28;19928;-79
2023/04/26 00:16:35;;;;;;;;;;;1.80;99.90;;;;;;5095645;28;19990;-79
2023/04/26 00:19:03;;;;;;;;;;;1.80;99.90;;;;;;5094254;28;19935;-79
2023/04/26 00:21:31;;;;;;;;;;;1.70;99.90;;;;;;5096262;28;20031;-79
2023/04/26 00:23:58;;;;;;;;;;;1.70;99.90;;;;;;5095290;28;19959;-79
2023/04/26 00:26:25;;;;;;;;;;;1.70;99.90;;;;;;5090281;28;19932;-79
2023/04/26 00:28:52;;;;;;;;;;;1.80;99.90;;;;;;5092963;28;19928;-79
2023/04/26 00:31:19;;;;;;;;;;;1.80;99.90;;;;;;5095801;28;19947;-79
2023/04/26 00:33:45;;;;;;;;;;;1.80;99.90;;;;;;5096799;28;19996;-79
2023/04/26 00:36:13;;;;;;;;;;;1.80;99.90;;;;;;5099290;28;19928;-79
2023/04/26 00:38:41;;;;;;;;;;;4.30;99.90;;;;;;5098962;28;19924;-79
2023/04/26 00:41:09;;;;;;;;;;;1.80;99.90;;;;;;5096849;28;20292;-79
2023/04/26 00:43:35;;;;;;;;;;;1.80;99.90;;;;;;5093271;28;19951;-79
2023/04/26 00:46:03;;;;;;;;;;;1.80;99.90;;;;;;5094428;28;19928;-79
2023/04/26 00:48:30;;;;;;;;;;;1.70;99.90;;;;;;5093776;28;20207;-78
2023/04/26 00:50:57;;;;;;;;;;;1.70;99.90;;;;;;5091191;28;19928;-78
2023/04/26 00:53:25;;;;;;;;;;;1.60;99.90;;;;;;5091738;28;19932;-78
2023/04/26 00:55:53;;;;;;;;;;;2.00;99.90;;;;;;5091610;28;20389;-79
2023/04/26 00:58:20;;;;;;;;;;;1.60;99.90;;;;;;5089221;28;19982;-79
2023/04/26 01:00:49;;;;;;;;;;;1.50;99.90;;;;;;5093167;28;19928;-79
2023/04/26 01:03:15;;;;;;;;;;;1.40;99.90;;;;;;5094918;28;19928;-80
2023/04/26 01:05:42;;;;;;;;;;;1.40;99.90;;;;;;5090143;28;19940;-80
2023/04/26 01:08:10;;;;;;;;;;;1.40;99.90;;;;;;5089917;28;19931;-81
2023/04/26 01:10:38;;;;;;;;;;;1.30;99.90;;;;;;5084381;28;19932;-80
2023/04/26 01:13:07;;;;;;;;;;;1.30;99.90;;;;;;5090044;28;20469;-80
2023/04/26 01:15:37;;;;;;;;;;;1.30;99.90;;;;;;5093531;28;19924;-81
2023/04/26 01:18:05;;;;;;;;;;;1.30;99.90;;;;;;5094374;28;19932;-81
2023/04/26 01:20:33;;;;;;;;;;;1.30;99.90;;;;;;5091346;28;19924;-81
2023/04/26 01:23:03;;;;;;;;;;;1.30;99.90;;;;;;5094340;28;19959;-80
2023/04/26 01:25:30;;;;;;;;;;;1.30;99.90;;;;;;5094935;28;19991;-80
2023/04/26 01:31:27;;;;;;;;;;;;;;;;;;5101621;28;20337;-81
2023/04/26 01:33:54;;;;;;;;;;;1.20;99.90;;;;;;5094902;28;19928;-81
2023/04/26 01:36:21;;;;;;;;;;;1.20;99.90;;;;;;5096685;28;19924;-80
2023/04/26 01:38:50;;;;;;;;;;;1.20;99.90;;;;;;5101505;28;19928;-80
2023/04/26 01:41:17;;;;;;;;;;;1.10;99.90;;;;;;5100101;28;20073;-80
2023/04/26 01:43:45;;;;;;;;;;;1.10;99.90;;;;;;5098963;28;19928;-80
2023/04/26 01:46:11;;;;;;;;;;;1.10;99.90;;;;;;5099804;28;19924;-82
2023/04/26 01:48:39;;;;;;;;;;;1.00;99.90;;;;;;5097794;28;19932;-82
2023/04/26 01:51:06;;;;;;;;;;;1.00;99.90;;;;;;5096320;28;19924;-82
2023/04/26 01:53:33;;;;;;;;;;;0.90;99.90;;;;;;5093819;28;20567;-81
2023/04/26 01:56:02;;;;;;;;;;;1.70;99.90;;;;;;5096823;28;19932;-81
2023/04/26 01:58:30;;;;;;;;;;;0.90;99.90;;;;;;5097764;28;19989;-81
2023/04/26 02:01:04;;;;;;;;;;;0.90;99.90;;;;;;5098241;28;20399;-81
2023/04/26 02:03:31;;;;;;;;;;;0.90;99.90;;;;;;5089438;28;20538;-81
2023/04/26 02:05:59;;;;;;;;;;;0.90;99.90;;;;;;5098410;28;19935;-80
2023/04/26 02:08:26;;;;;;;;;;;0.90;99.90;;;;;;5092986;28;19920;-81
2023/04/26 02:10:59;;;;;;;;;;;0.90;99.90;;;;;;5096533;28;19943;-81
2023/04/26 02:13:28;;;;;;;;;;;0.80;99.90;;;;;;5111855;28;19932;-81
2023/04/26 02:15:55;;;;;;;;;;;0.80;99.90;;;;;;5096690;28;19944;-81
2023/04/26 02:18:22;;;;;;;;;;;0.80;99.90;;;;;;5097173;28;20022;-81
2023/04/26 02:20:50;;;;;;;;;;;-0.80;99.90;;;;;;5091118;28;19928;-81
2023/04/26 02:23:17;;;;;;;;;;;0.80;99.90;;;;;;5094762;28;19924;-81
2023/04/26 02:25:45;;;;;;;;;;;0.80;99.90;;;;;;5093618;28;20374;-81
2023/04/26 02:28:12;;;;;;;;;;;0.80;99.90;;;;;;5096331;28;19928;-80
2023/04/26 02:30:41;;;;;;;;;;;0.90;99.90;;;;;;5098475;28;19924;-80
2023/04/26 02:33:08;;;;;;;;;;;0.80;99.90;;;;;;5096348;28;19977;-80
2023/04/26 02:35:36;;;;;;;;;;;0.80;99.90;;;;;;5096553;28;19966;-80
2023/04/26 02:38:07;;;;;;;;;;;0.80;99.90;;;;;;5094541;28;19940;-80
2023/04/26 02:40:34;;;;;;;;;;;0.80;99.90;;;;;;5097935;28;19932;-80
2023/04/26 02:43:01;;;;;;;;;;;0.80;99.90;;;;;;5093590;28;20387;-80
2023/04/26 02:45:29;;;;;;;;;;;0.70;99.90;;;;;;5093966;28;19935;-81
2023/04/26 02:47:57;;;;;;;;;;;0.70;99.90;;;;;;5094032;28;20739;-81
2023/04/26 02:50:24;;;;;;;;;;;0.70;99.90;;;;;;5091806;28;19935;-80
2023/04/26 02:52:51;;;;;;;;;;;0.70;99.90;;;;;;5091019;28;19930;-81
2023/04/26 02:55:19;;;;;;;;;;;0.70;99.90;;;;;;5092127;28;19935;-80
2023/04/26 02:57:46;;;;;;;;;;;0.70;99.90;;;;;;5087626;28;19928;-80
2023/04/26 03:00:13;;;;;;;;;;;0.70;99.90;;;;;;5086503;28;19928;-80
2023/04/26 03:02:41;;;;;;;;;;;0.70;99.90;;;;;;5086603;28;19928;-80
2023/04/26 03:05:10;;;;;;;;;;;0.60;99.90;;;;;;5086718;28;19993;-80
2023/04/26 03:07:37;;;;;;;;;;;0.60;99.90;;;;;;5093047;28;19997;-81
2023/04/26 03:10:04;;;;;;;;;;;0.60;99.90;;;;;;5094562;28;19924;-79
2023/04/26 03:12:31;;;;;;;;;;;0.60;99.90;;;;;;5095038;28;20443;-80
2023/04/26 03:15:02;;;;;;;;;;;0.60;99.90;;;;;;5101376;28;20337;-81
2023/04/26 03:17:29;;;;;;;;;;;0.40;99.90;;;;;;5094174;28;19927;-81
2023/04/26 03:19:57;;;;;;;;;;;0.50;99.90;;;;;;5093329;28;19932;-82
2023/04/26 03:22:27;;;;;;;;;;;0.50;99.90;;;;;;5092621;28;19939;-82
2023/04/26 03:24:55;;;;;;;;;;;0.40;99.90;;;;;;5091140;28;20280;-81
2023/04/26 03:27:23;;;;;;;;;;;0.40;99.90;;;;;;5088578;28;19932;-81
2023/04/26 03:29:50;;;;;;;;;;;0.40;99.90;;;;;;5090247;28;19928;-81
2023/04/26 03:32:17;;;;;;;;;;;0.40;99.90;;;;;;5089279;28;20015;-82
2023/04/26 03:34:47;;;;;;;;;;;0.40;99.90;;;;;;5091467;28;20023;-82
2023/04/26 03:37:14;;;;;;;;;;;0.50;99.90;;;;;;5088978;28;19985;-82
2023/04/26 03:39:52;;;;;;;;;;;0.50;99.90;;;;;;5096427;28;19999;-82
2023/04/26 03:42:25;;;;;;;;;;;0.40;99.90;;;;;;5095150;28;19928;-81
2023/04/26 03:44:52;;;;;;;;;;;0.40;99.90;;;;;;5095259;28;20235;-82
2023/04/26 03:47:19;;;;;;;;;;;0.30;99.90;;;;;;5091644;28;19928;-83
2023/04/26 03:49:47;;;;;;;;;;;0.30;99.90;;;;;;5093730;28;19928;-83
2023/04/26 03:52:14;;;;;;;;;;;0.20;99.90;;;;;;5090147;28;20413;-85
2023/04/26 03:54:42;;;;;;;;;;;0.20;99.90;;;;;;5095071;28;19928;-84
2023/04/26 03:57:10;;;;;;;;;;;1.60;99.90;;;;;;5094359;28;19927;-83
2023/04/26 03:59:37;;;;;;;;;;;0.20;99.90;;;;;;5092630;28;20255;-82
2023/04/26 04:02:05;;;;;;;;;;;0.20;99.90;;;;;;5093882;28;19958;-82
2023/04/26 04:04:32;;;;;;;;;;;0.20;99.90;;;;;;5093128;28;19931;-84
2023/04/26 04:06:59;;;;;;;;;;;0.30;99.90;;;;;;5088898;28;20367;-83
2023/04/26 04:09:26;;;;;;;;;;;0.30;99.90;;;;;;5088976;28;19939;-82
2023/04/26 04:11:54;;;;;;;;;;;0.40;99.90;;;;;;5089603;28;19928;-81
2023/04/26 04:14:22;;;;;;;;;;;0.40;99.90;;;;;;5086798;28;19972;-81
2023/04/26 04:16:49;;;;;;;;;;;0.40;99.90;;;;;;5091915;28;20066;-81
2023/04/26 04:19:16;;;;;;;;;;;0.40;99.90;;;;;;5079216;28;19974;-81
2023/04/26 04:21:44;;;;;;;;;;;0.40;99.90;;;;;;5075428;28;19952;-81
2023/04/26 04:24:11;;;;;;;;;;;0.40;99.90;;;;;;5074832;28;20010;-82
2023/04/26 04:26:39;;;;;;;;;;;0.40;99.90;;;;;;5080980;28;19924;-82
2023/04/26 04:29:08;;;;;;;;;;;0.30;99.90;;;;;;5094081;28;19932;-82
2023/04/26 04:31:37;;;;;;;;;;;;;;;;;;5081322;28;19940;-81
2023/04/26 04:34:05;;;;;;;;;;;0.00;99.90;;;;;;5078293;28;19978;-83
2023/04/26 04:36:34;;;;;;;;;;;0.30;99.90;;;;;;5079705;28;20404;-82
2023/04/26 04:39:03;;;;;;;;;;;0.40;99.90;;;;;;5083400;28;19929;-83
2023/04/26 04:41:31;;;;;;;;;;;0.50;99.90;;;;;;5097967;28;19920;-80
2023/04/26 04:43:59;;;;;;;;;;;0.60;99.90;;;;;;5098004;28;19958;-81
2023/04/26 04:46:26;;;;;;;;;;;0.70;99.90;;;;;;5097667;28;19938;-82
2023/04/26 04:48:53;;;;;;;;;;;0.70;99.90;;;;;;5083777;28;19935;-83
2023/04/26 04:51:22;;;;;;;;;;;0.80;99.90;;;;;;5090219;28;19955;-83
2023/04/26 04:53:50;;;;;;;;;;;0.80;99.90;;;;;;5087442;28;19936;-83
2023/04/26 04:56:17;;;;;;;;;;;0.80;99.90;;;;;;5079092;28;20460;-81
2023/04/26 04:58:44;;;;;;;;;;;0.90;99.90;;;;;;5085803;28;20006;-83
2023/04/26 05:01:11;;;;;;;;;;;1.00;99.90;;;;;;5087553;28;19937;-82
2023/04/26 05:03:47;;;;;;;;;;;1.10;99.90;;;;;;5095551;28;19928;-83
2023/04/26 05:06:14;;;;;;;;;;;1.70;99.90;;;;;;5096943;28;19924;-82
2023/04/26 05:08:42;;;;;;;;;;;1.30;99.90;;;;;;5111339;28;19928;-82
2023/04/26 05:11:10;;;;;;;;;;;1.50;99.90;;;;;;5074697;28;20022;-83
2023/04/26 05:13:37;;;;;;;;;;;1.70;99.90;;;;;;5073798;28;19982;-83
2023/04/26 05:16:05;;;;;;;;;;;1.90;99.90;;;;;;5075291;28;19932;-83
2023/04/26 05:18:32;;;;;;;;;;;2.00;99.90;;;;;;5093483;28;20370;-83
2023/04/26 05:21:00;;;;;;;;;;;2.30;99.90;;;;;;5111299;28;19957;-82
2023/04/26 05:23:30;;;;;;;;;;;2.40;99.90;;;;;;5086638;28;19927;-82
2023/04/26 05:26:01;;;;;;;;;;;2.60;99.90;;;;;;5082549;28;19944;-82
2023/04/26 05:29:06;;;;;;;;;;;3.00;99.90;;;;;;5086849;28;20015;-83
2023/04/26 05:31:53;;;;;;;;;;;3.00;99.90;;;;;;5089180;28;19932;-82
2023/04/26 05:34:25;;;;;;;;;;;3.30;99.90;;;;;;5091544;28;19928;-82
2023/04/26 05:36:56;;;;;;;;;;;3.80;99.90;;;;;;5095279;28;19924;-83
2023/04/26 05:39:24;;;;;;;;;;;6.30;99.90;;;;;;5091640;28;19935;-83
2023/04/26 05:41:53;;;;;;;;;;;7.50;99.90;;;;;;5085178;28;19932;-82
2023/04/26 05:44:20;;;;;;;;;;;8.00;99.90;;;;;;5087058;28;19960;-83
2023/04/26 05:46:47;;;;;;;;;;;9.40;99.90;;;;;;5079864;28;19936;-82
2023/04/26 05:49:14;;;;;;;;;;;10.60;99.90;;;;;;5077750;28;19960;-82
2023/04/26 05:51:42;;;;;;;;;;;11.80;99.90;;;;;;5079168;28;19944;-82
2023/04/26 05:54:09;;;;;;;;;;;13.20;99.90;;;;;;5081177;28;19928;-83
2023/04/26 05:56:36;;;;;;;;;;;14.20;99.90;;;;;;5079047;28;19936;-82
2023/04/26 05:59:04;;;;;;;;;;;15.10;99.90;;;;;;5083762;28;20045;-83
2023/04/26 06:01:33;;;;;;;;;;;15.90;99.90;;;;;;5084383;28;20054;-83
2023/04/26 06:04:01;;;;;;;;;;;16.80;99.90;;;;;;5087304;28;19927;-83
2023/04/26 06:06:32;;;;;;;;;;;17.30;99.90;;;;;;5074123;28;19970;-83
2023/04/26 06:10:23;;;;;;;;;;;18.80;99.90;;;;;;5114714;27;19922;-80
2023/04/26 06:12:50;;;;;;;;;;;18.80;99.90;;;;;;5095085;28;19987;-80
2023/04/26 06:15:18;;;;;;;;;;;19.70;99.90;;;;;;5098400;28;19981;-80
2023/04/26 06:17:45;;;;;;;;;;;20.40;99.90;;;;;;5093284;28;19998;-79
2023/04/26 06:20:11;;;;;;;;;;;21.20;99.90;;;;;;5601199;22;19933;-80
2023/04/26 06:22:38;;;;;;;;;;;21.30;99.90;;;;;;5071906;28;19932;-80
2023/04/26 06:25:06;;;;;;;;;;;22.30;99.90;;;;;;5056305;28;20018;-80
2023/04/26 06:27:35;;;;;;;;;;;22.30;99.90;;;;;;5071014;28;20619;-80
2023/04/26 06:30:02;;;;;;;;;;;23.00;99.90;;;;;;5629693;22;19929;-80
2023/04/26 06:32:31;;;;;;;;;;;23.10;99.90;;;;;;5072781;28;19928;-79
2023/04/26 06:34:58;;;;;;;;;;;22.10;99.90;;;;;;5072239;28;20304;-79
2023/04/26 06:37:25;;;;;;;;;;;22.70;99.90;;;;;;5071011;28;19932;-80
2023/04/26 06:39:52;;;;;;;;;;;22.40;99.90;;;;;;5067743;28;19936;-80
2023/04/26 06:42:20;;;;;;;;;;;22.40;99.90;;;;;;5065608;28;20008;-80
2023/04/26 06:45:00;;;;;;;;;;;22.20;99.90;;;;;;5068218;28;19933;-80
2023/04/26 06:47:26;;;;;;;;;;;22.00;99.90;;;;;;5082704;28;19935;-80
2023/04/26 06:49:55;;;;;;;;;;;21.30;99.90;;;;;;5102474;28;19992;-79
2023/04/26 06:52:22;;;;;;;;;;;21.00;99.90;;;;;;5105781;28;19939;-79
2023/04/26 06:54:48;;;;;;;;;;;20.10;99.90;;;;;;5098675;28;19937;-80
2023/04/26 06:57:15;;;;;;;;;;;19.50;99.90;;;;;;5080728;28;19932;-81
2023/04/26 06:59:42;;;;;;;;;;;19.40;99.90;;;;;;5081057;28;20395;-79
2023/04/26 07:02:10;;;;;;;;;;;19.30;99.90;;;;;;5076795;28;19928;-79
2023/04/26 07:04:37;;;;;;;;;;;19.60;99.90;;;;;;5083243;28;20359;-80
2023/04/26 07:07:04;;;;;;;;;;;20.00;99.90;;;;;;5085549;28;19925;-78
2023/04/26 07:09:31;;;;;;;;;;;21.10;99.90;;;;;;5085195;28;19929;-79
2023/04/26 07:11:57;;;;;;;;;;;19.80;99.90;;;;;;5079735;28;19933;-79
2023/04/26 07:14:24;;;;;;;;;;;22.50;99.90;;;;;;5082276;28;19939;-78
2023/04/26 07:16:51;;;;;;;;;;;23.40;99.90;;;;;;5095700;28;19936;-78
2023/04/26 07:19:19;;;;;;;;;;;23.60;99.90;;;;;;5597386;22;19912;-79
2023/04/26 07:21:46;;;;;;;;;;;23.60;99.70;;;;;;5087701;28;19935;-79
2023/04/26 07:24:13;;;;;;;;;;;23.60;99.90;;;;;;5085453;28;19928;-79
2023/04/26 07:26:40;;;;;;;;;;;24.00;99.90;;;;;;5064405;28;19932;-78
2023/04/26 07:29:07;;;;;;;;;;;24.10;99.30;;;;;;5056588;28;20490;-79
2023/04/26 07:31:34;;;;;;;;;;;24.40;97.80;;;;;;5068092;28;19925;-80
2023/04/26 07:34:01;;;;;;;;;;;24.20;96.30;;;;;;5069705;28;19932;-79
2023/04/26 07:36:30;;;;;;;;;;;22.90;95.80;;;;;;5066977;28;19933;-79
2023/04/26 07:38:57;;;;;;;;;;;22.50;97.40;;;;;;5048003;28;19940;-79
2023/04/26 07:41:24;;;;;;;;;;;22.30;96.00;;;;;;5067280;28;19933;-80
2023/04/26 07:43:50;;;;;;;;;;;21.70;95.00;;;;;;5069381;28;20270;-79
2023/04/26 07:46:17;;;;;;;;;;;21.20;95.30;;;;;;5067978;28;19933;-79
2023/04/26 07:48:44;;;;;;;;;;;20.20;94.80;;;;;;5066186;28;19924;-79
2023/04/26 07:51:11;;;;;;;;;;;20.00;93.70;;;;;;5066101;28;20083;-79
2023/04/26 07:53:39;;;;;;;;;;;19.70;94.40;;;;;;5074533;28;20650;-79
2023/04/26 07:56:07;;;;;;;;;;;19.10;93.80;;;;;;5067677;28;19947;-79
2023/04/26 07:58:34;;;;;;;;;;;19.10;96.00;;;;;;5048563;28;20054;-77
2023/04/26 08:01:02;;;;;;;;;;;19.90;96.90;;;;;;5068137;28;20022;-80
2023/04/26 08:03:29;;;;;;;;;;;20.00;95.70;;;;;;5050937;28;19972;-79
2023/04/26 08:05:57;;;;;;;;;;;20.00;94.90;;;;;;5070296;28;19925;-80
2023/04/26 08:08:24;;;;;;;;;;;19.70;95.10;;;;;;5074589;28;19978;-80
2023/04/26 08:10:53;;;;;;;;;;;19.60;94.20;;;;;;5071846;28;19928;-79
2023/04/26 08:13:20;;;;;;;;;;;19.40;94.30;;;;;;5069806;28;20069;-80
2023/04/26 08:15:46;;;;;;;;;;;19.30;94.40;;;;;;5073099;28;19928;-80
2023/04/26 08:18:13;;;;;;;;;;;19.50;94.40;;;;;;5070917;28;19932;-80
2023/04/26 08:20:41;;;;;;;;;;;19.50;94.60;;;;;;5073728;28;19929;-79
2023/04/26 08:23:08;;;;;;;;;;;20.60;95.80;;;;;;5067046;28;19940;-78
2023/04/26 08:25:35;;;;;;;;;;;20.70;95.20;;;;;;5057514;28;19932;-79
2023/04/26 08:28:03;;;;;;;;;;;21.40;95.10;;;;;;5058885;28;19932;-78
2023/04/26 08:30:31;;;;;;;;;;;21.50;93.60;;;;;;5065455;28;19928;-77
2023/04/26 08:32:57;;;;;;;;;;;20.90;92.20;;;;;;5066760;28;19939;-78
2023/04/26 08:35:24;;;;;;;;;;;19.70;90.50;;;;;;5040960;28;20308;-76
2023/04/26 08:37:51;;;;;;;;;;;18.50;90.50;;;;;;5065101;28;19928;-77
2023/04/26 08:40:22;;;;;;;;;;;17.10;91.40;;;;;;5052741;28;19929;-80
2023/04/26 08:42:48;;;;;;;;;;;19.30;92.10;;;;;;5066980;28;19932;-79
2023/04/26 08:45:17;;;;;;;;;;;16.40;91.10;;;;;;5063691;28;19990;-79
2023/04/26 08:47:44;;;;;;;;;;;15.60;91.00;;;;;;5072048;28;19993;-80
2023/04/26 08:50:13;;;;;;;;;;;15.50;90.60;;;;;;5071298;28;19936;-80
2023/04/26 08:52:40;;;;;;;;;;;15.20;91.10;;;;;;5063835;28;19932;-79
2023/04/26 08:55:08;;;;;;;;;;;15.90;93.10;;;;;;5045333;28;19982;-79
2023/04/26 08:57:35;;;;;;;;;;;16.10;93.20;;;;;;5066912;28;19932;-79
2023/04/26 09:00:04;;;;;;;;;;;16.90;93.20;;;;;;5078726;28;20899;-81
2023/04/26 09:02:32;;;;;;;;;;;17.40;93.10;;;;;;5085092;28;19932;-80
2023/04/26 09:04:59;;;;;;;;;;;18.10;92.50;;;;;;5085363;28;19939;-81
2023/04/26 09:07:30;;;;;;;;;;;18.30;92.70;;;;;;5073161;28;20584;-80
2023/04/26 09:09:57;;;;;;;;;;;18.10;91.30;;;;;;5050155;28;19939;-80
2023/04/26 09:12:24;;;;;;;;;;;17.70;90.60;;;;;;5066588;28;19933;-80
2023/04/26 09:14:51;;;;;;;;;;;15.20;90.10;;;;;;5068664;28;19933;-80
2023/04/26 09:17:25;;;;;;;;;;;17.10;91.20;;;;;;5070805;28;19921;-79
2023/04/26 09:19:54;;;;;;;;;;;17.10;91.10;;;;;;5068209;28;19939;-80
2023/04/26 09:22:31;;;;;;;;;;;17.10;91.30;;;;;;5061124;28;19932;-81
2023/04/26 09:24:58;;;;;;;;;;;17.00;91.90;;;;;;5067373;28;19994;-81
2023/04/26 09:27:32;;;;;;;;;;;16.60;90.90;;;;;;5066603;28;20023;-80
2023/04/26 09:29:59;;;;;;;;;;;16.40;90.90;;;;;;5045065;28;19929;-81
2023/04/26 09:32:27;;;;;;;;;;;18.00;92.10;;;;;;5059367;28;19925;-80
2023/04/26 09:34:56;;;;;;;;;;;15.80;91.30;;;;;;5066738;28;20395;-80
2023/04/26 09:37:23;;;;;;;;;;;15.70;91.70;;;;;;5068243;28;20006;-80
2023/04/26 09:39:50;;;;;;;;;;;16.00;92.20;;;;;;5066860;28;20301;-80
2023/04/26 09:42:17;;;;;;;;;;;16.10;92.10;;;;;;5066058;28;19932;-80
2023/04/26 09:44:44;;;;;;;;;;;16.40;92.20;;;;;;5067918;28;20222;-81
2023/04/26 09:47:11;;;;;;;;;;;16.20;91.30;;;;;;5066446;28;20036;-80
2023/04/26 09:49:47;;;;;;;;;;;16.10;91.10;;;;;;5067224;28;20401;-81
2023/04/26 09:52:16;;;;;;;;;;;15.70;91.00;;;;;;5066414;28;20244;-82
2023/04/26 09:54:43;;;;;;;;;;;15.40;91.50;;;;;;5067483;28;19939;-81
2023/04/26 09:57:11;;;;;;;;;;;15.50;91.80;;;;;;5064894;28;19932;-80
2023/04/26 09:59:44;;;;;;;;;;;15.70;92.30;;;;;;5065897;28;20027;-81
2023/04/26 10:02:15;;;;;;;;;;;16.00;92.80;;;;;;5063668;28;20331;-80
2023/04/26 10:04:46;;;;;;;;;;;16.00;92.80;;;;;;5064260;28;19932;-80
2023/04/26 10:07:14;;;;;;;;;;;16.30;92.80;;;;;;5069868;28;20342;-81
2023/04/26 10:09:44;;;;;;;;;;;16.60;92.40;;;;;;5066923;28;21038;-80
2023/04/26 10:12:11;;;;;;;;;;;16.60;92.20;;;;;;5067599;28;19932;-81
2023/04/26 10:14:38;;;;;;;;;;;16.60;91.90;;;;;;5064762;28;19932;-80
2023/04/26 10:17:05;;;;;;;;;;;16.40;91.40;;;;;;5054464;28;19968;-82
2023/04/26 10:19:32;;;;;;;;;;;16.30;91.20;;;;;;5070267;28;19983;-80
2023/04/26 10:22:01;;;;;;;;;;;16.30;91.10;;;;;;5058947;28;19935;-81
2023/04/26 10:24:28;;;;;;;;;;;16.60;91.00;;;;;;5072883;28;19924;-79
2023/04/26 10:26:56;;;;;;;;;;;16.80;91.60;;;;;;5067380;28;19937;-82
2023/04/26 10:29:26;;;;;;;;;;;16.90;90.70;;;;;;5055395;28;20318;-82
2023/04/26 10:32:07;;;;;;;;;;;17.00;90.40;;;;;;5053377;28;19978;-81
2023/04/26 10:34:35;;;;;;;;;;;17.00;89.20;;;;;;5068712;28;19935;-80
2023/04/26 10:37:11;;;;;;;;;;;17.20;88.60;;;;;;5072464;28;19932;-82
2023/04/26 10:39:38;;;;;;;;;;;17.50;90.20;;;;;;5057006;28;19935;-82
2023/04/26 10:42:22;;;;;;;;;;;17.50;89.30;;;;;;5075197;28;19943;-83
2023/04/26 10:44:49;;;;;;;;;;;16.00;88.60;;;;;;5056953;28;19928;-81
2023/04/26 10:47:37;;;;;;;;;;;17.50;88.80;;;;;;5053913;28;19928;-82
2023/04/26 10:50:06;;;;;;;;;;;17.10;88.20;;;;;;5054854;28;19948;-81
2023/04/26 10:52:33;;;;;;;;;;;16.80;89.80;;;;;;5043305;28;19978;-82
2023/04/26 10:55:01;;;;;;;;;;;16.90;89.90;;;;;;5072693;28;19941;-81
2023/04/26 10:57:48;;;;;;;;;;;16.90;87.90;;;;;;5051214;28;19935;-83
2023/04/26 11:00:36;;;;;;;;;;;17.10;88.60;;;;;;5072680;28;19932;-82
2023/04/26 11:03:07;;;;;;;;;;;17.40;89.50;;;;;;5065921;28;19935;-82
2023/04/26 11:05:36;;;;;;;;;;;17.80;88.60;;;;;;5065641;28;19991;-84
2023/04/26 11:08:03;;;;;;;;;;;17.90;86.90;;;;;;5075495;28;19928;-85
2023/04/26 11:10:30;;;;;;;;;;;18.00;85.60;;;;;;5092887;28;19913;-85
2023/04/26 11:13:03;;;;;;;;;;;17.90;84.80;;;;;;5076393;28;19920;-83
2023/04/26 11:15:30;;;;;;;;;;;17.60;85.60;;;;;;5069217;28;20046;-84
2023/04/26 11:17:57;;;;;;;;;;;17.40;84.60;;;;;;5077868;28;19925;-83
2023/04/26 11:20:28;;;;;;;;;;;17.30;85.60;;;;;;5075582;28;19924;-82
2023/04/26 11:22:55;;;;;;;;;;;17.30;87.40;;;;;;5075928;28;19928;-84
2023/04/26 11:25:21;;;;;;;;;;;17.30;86.80;;;;;;5076118;28;19959;-82
2023/04/26 11:27:48;;;;;;;;;;;17.40;85.90;;;;;;5077007;28;19950;-81
2023/04/26 11:30:18;;;;;;;;;;;17.40;84.80;;;;;;5060844;28;19932;-83
2023/04/26 11:32:45;;;;;;;;;;;17.30;84.70;;;;;;5059982;28;20387;-82
2023/04/26 11:35:12;;;;;;;;;;;17.30;83.80;;;;;;5060528;28;19970;-82
2023/04/26 11:37:39;;;;;;;;;;;17.10;82.80;;;;;;5077244;28;20274;-83
2023/04/26 11:40:10;;;;;;;;;;;16.90;81.80;;;;;;5059866;28;19925;-82
2023/04/26 11:42:37;;;;;;;;;;;16.60;82.00;;;;;;5078043;28;20023;-83
2023/04/26 11:45:05;;;;;;;;;;;16.70;84.10;;;;;;5079470;28;20040;-82
2023/04/26 11:47:34;;;;;;;;;;;17.00;83.70;;;;;;5086934;28;19935;-84
2023/04/26 11:50:02;;;;;;;;;;;17.50;84.00;;;;;;5076169;28;20626;-82
2023/04/26 11:52:29;;;;;;;;;;;17.60;82.90;;;;;;5078111;28;19977;-84
2023/04/26 11:55:02;;;;;;;;;;;18.20;84.50;;;;;;5060146;28;20015;-81
2023/04/26 11:57:30;;;;;;;;;;;18.20;82.40;;;;;;5062463;28;19954;-82
2023/04/26 12:00:07;;;;;;;;;;;18.50;81.10;;;;;;5075196;28;19935;-81
2023/04/26 12:02:36;;;;;;;;;;;18.30;80.50;;;;;;5059222;28;19937;-82
2023/04/26 12:05:03;;;;;;;;;;;18.10;79.20;;;;;;5077835;28;19944;-83
2023/04/26 12:07:32;;;;;;;;;;;17.70;77.60;;;;;;5090926;28;19970;-80
2023/04/26 12:10:13;;;;;;;;;;;17.20;79.40;;;;;;5073883;28;19987;-82
2023/04/26 12:12:43;;;;;;;;;;;17.30;79.60;;;;;;5093369;28;19929;-83
2023/04/26 12:15:10;;;;;;;;;;;17.00;80.30;;;;;;5095602;28;19953;-83
2023/04/26 12:17:38;;;;;;;;;;;16.60;80.80;;;;;;5096396;28;20025;-86
2023/04/26 12:20:14;;;;;;;;;;;16.40;80.70;;;;;;5076172;28;20056;-85
2023/04/26 12:22:41;;;;;;;;;;;16.30;81.90;;;;;;5094237;28;19912;-85
2023/04/26 12:25:09;;;;;;;;;;;15.90;82.30;;;;;;5080439;28;19974;-82
2023/04/26 12:27:36;;;;;;;;;;;15.70;83.00;;;;;;5074326;28;20002;-85
2023/04/26 12:30:03;;;;;;;;;;;15.40;83.30;;;;;;5618467;22;20007;-86
2023/04/26 12:32:30;;;;;;;;;;;15.40;83.10;;;;;;5076272;28;19940;-85
2023/04/26 12:34:58;;;;;;;;;;;15.40;84.10;;;;;;5069729;28;20038;-85
2023/04/26 12:37:24;;;;;;;;;;;16.10;84.80;;;;;;5066563;28;19924;-80
2023/04/26 12:39:51;;;;;;;;;;;15.20;84.60;;;;;;5083582;28;19939;-83
2023/04/26 12:42:18;;;;;;;;;;;15.50;85.70;;;;;;5085690;28;19935;-82
2023/04/26 12:44:45;;;;;;;;;;;16.10;86.30;;;;;;5073046;28;19996;-80
2023/04/26 12:47:12;;;;;;;;;;;15.50;84.70;;;;;;5088471;28;19985;-80
2023/04/26 12:49:39;;;;;;;;;;;15.20;83.60;;;;;;5082139;28;19940;-80
2023/04/26 12:52:07;;;;;;;;;;;15.80;85.00;;;;;;5068218;28;20327;-80
2023/04/26 12:54:34;;;;;;;;;;;15.00;84.20;;;;;;5085609;28;19928;-81
2023/04/26 12:57:00;;;;;;;;;;;15.00;84.90;;;;;;5081465;28;19924;-80
2023/04/26 12:59:27;;;;;;;;;;;15.60;85.40;;;;;;5076351;28;19959;-80
2023/04/26 13:01:54;;;;;;;;;;;15.80;84.50;;;;;;5069957;28;19959;-80
2023/04/26 13:04:21;;;;;;;;;;;17.60;86.90;;;;;;5049498;28;19932;-80
2023/04/26 13:06:47;;;;;;;;;;;16.30;85.00;;;;;;5086064;28;19935;-80
2023/04/26 13:09:16;;;;;;;;;;;16.40;83.60;;;;;;5084168;28;20031;-81
2023/04/26 13:11:43;;;;;;;;;;;16.30;82.50;;;;;;5068361;28;19928;-81
2023/04/26 13:14:10;;;;;;;;;;;16.00;82.00;;;;;;5087306;28;19979;-81
2023/04/26 13:16:41;;;;;;;;;;;17.10;84.80;;;;;;5089268;28;19928;-81
2023/04/26 13:19:07;;;;;;;;;;;16.30;83.50;;;;;;5102793;28;19916;-81
2023/04/26 13:21:36;;;;;;;;;;;16.40;84.00;;;;;;5102942;28;19933;-81
2023/04/26 13:24:03;;;;;;;;;;;16.90;84.30;;;;;;5098853;28;19939;-81
2023/04/26 13:26:31;;;;;;;;;;;17.60;83.70;;;;;;5101864;28;20214;-81
2023/04/26 13:28:58;;;;;;;;;;;18.10;84.20;;;;;;5087428;28;19979;-81
2023/04/26 13:31:25;;;;;;;;;;;18.20;82.30;;;;;;5085483;28;19928;-80
2023/04/26 13:33:51;;;;;;;;;;;18.20;81.00;;;;;;5086534;28;20529;-80
2023/04/26 13:36:18;;;;;;;;;;;17.80;81.60;;;;;;5090040;28;19928;-80
2023/04/26 13:38:45;;;;;;;;;;;17.70;80.80;;;;;;5094056;28;19928;-80
2023/04/26 13:41:11;;;;;;;;;;;17.70;79.50;;;;;;5087144;28;19925;-80
2023/04/26 13:43:40;;;;;;;;;;;17.40;78.90;;;;;;5081752;28;20239;-81
2023/04/26 13:46:06;;;;;;;;;;;16.90;79.90;;;;;;5087690;28;19951;-80
2023/04/26 13:48:34;;;;;;;;;;;16.60;79.50;;;;;;5081599;28;19977;-80
2023/04/26 13:51:01;;;;;;;;;;;16.60;79.40;;;;;;5081954;28;20375;-80
2023/04/26 13:53:28;;;;;;;;;;;16.20;78.80;;;;;;5081815;28;20472;-82
2023/04/26 13:55:55;;;;;;;;;;;16.10;79.70;;;;;;5080651;28;21005;-79
2023/04/26 13:58:22;;;;;;;;;;;15.90;80.30;;;;;;5082823;28;19936;-79
2023/04/26 14:00:50;;;;;;;;;;;15.80;80.70;;;;;;5076226;28;19931;-80
2023/04/26 14:03:16;;;;;;;;;;;15.40;79.90;;;;;;5081358;28;19924;-80
2023/04/26 14:05:43;;;;;;;;;;;14.90;78.90;;;;;;5082964;28;19968;-80
2023/04/26 14:08:12;;;;;;;;;;;14.40;80.90;;;;;;5082865;28;19932;-80
2023/04/26 14:10:38;;;;;;;;;;;14.20;81.20;;;;;;5063153;28;20000;-80
2023/04/26 14:13:05;;;;;;;;;;;16.70;85.50;;;;;;5073202;28;20266;-80
2023/04/26 14:15:32;;;;;;;;;;;14.60;83.60;;;;;;5083084;28;19932;-80
2023/04/26 14:18:00;;;;;;;;;;;15.10;83.60;;;;;;5085359;28;19932;-80
2023/04/26 14:20:26;;;;;;;;;;;15.00;82.90;;;;;;5089629;28;20155;-80
2023/04/26 14:22:53;;;;;;;;;;;17.50;86.20;;;;;;5092295;28;19928;-80
2023/04/26 14:25:20;;;;;;;;;;;15.70;84.50;;;;;;5092643;28;20351;-80
2023/04/26 14:27:48;;;;;;;;;;;14.80;82.50;;;;;;5087692;28;19939;-79
2023/04/26 14:30:15;;;;;;;;;;;;;;;;;;5652973;22;19940;-80
2023/04/26 14:32:42;;;;;;;;;;;;;;;;;;5065874;28;19929;-80
2023/04/26 14:35:10;;;;;;;;;;;;;;;;;;5071372;28;19935;-80